createdAt,value
2023-02-07T05:00:29.248Z,85.05
2023-02-07T05:04:40.722Z,84.75
2023-02-07T05:08:52.192Z,86.41
2023-02-07T05:13:04.026Z,83.92
2023-02-07T05:17:15.568Z,84.77
2023-02-07T05:21:27.068Z,83.61
2023-02-07T05:25:38.779Z,83.63
2023-02-07T05:29:50.425Z,83.64
2023-02-07T05:34:01.904Z,83.42
2023-02-07T05:38:15.651Z,84.60
2023-02-07T05:42:27.151Z,84.23
2023-02-07T05:46:38.618Z,83.92
2023-02-07T05:50:50.073Z,84.26
2023-02-07T05:55:01.522Z,84.04
2023-02-07T05:59:13.083Z,83.94
2023-02-07T06:03:24.579Z,84.22
2023-02-07T06:07:36.047Z,84.08
2023-02-07T06:11:47.485Z,85.02
2023-02-07T06:15:58.962Z,85.10
2023-02-07T06:20:11.183Z,84.17
2023-02-07T06:24:22.813Z,84.92
2023-02-07T06:28:34.453Z,85.80
2023-02-07T06:32:46.075Z,85.81
2023-02-07T06:36:57.663Z,86.61
2023-02-07T06:41:11.318Z,87.55
2023-02-07T06:45:22.914Z,87.92
2023-02-07T06:49:34.466Z,88.14
2023-02-07T06:53:45.949Z,88.44
2023-02-07T06:57:57.849Z,88.74
2023-02-07T07:02:12.174Z,88.74
2023-02-07T07:06:23.969Z,89.29
2023-02-07T07:10:35.865Z,88.98
2023-02-07T07:14:47.415Z,88.39
2023-02-07T07:18:58.995Z,87.97
2023-02-07T07:23:10.596Z,87.27
2023-02-07T07:27:24.984Z,87.16
2023-02-07T07:31:36.876Z,85.81
2023-02-07T07:35:49.460Z,86.41
2023-02-07T07:40:06.993Z,85.48
2023-02-07T07:44:20.792Z,85.16
2023-02-07T07:48:36.750Z,84.40
2023-02-07T07:52:59.097Z,84.17
2023-02-07T07:57:13.568Z,83.71
2023-02-07T08:01:34.702Z,83.10
2023-02-07T08:05:49.652Z,83.37
2023-02-07T08:10:01.370Z,83.99
2023-02-07T08:14:12.897Z,83.43
2023-02-07T08:18:24.489Z,83.46
2023-02-07T08:22:36.098Z,83.58
2023-02-07T08:26:47.548Z,83.06
2023-02-07T08:31:03.969Z,82.18
2023-02-07T08:35:15.495Z,81.26
2023-02-07T08:39:26.977Z,81.26
2023-02-07T08:43:38.905Z,80.68
2023-02-07T08:47:50.475Z,80.22
2023-02-07T08:52:02.060Z,79.85
2023-02-07T08:56:13.894Z,79.47
2023-02-07T09:00:25.557Z,78.52
2023-02-07T09:04:37.289Z,77.98
2023-02-07T09:08:48.872Z,77.78
2023-02-07T09:13:00.439Z,84.15
2023-02-07T09:17:11.941Z,75.46
2023-02-07T09:21:23.822Z,74.83
2023-02-07T09:25:38.636Z,73.01
2023-02-07T09:29:50.110Z,73.62
2023-02-07T09:34:02.714Z,72.90
2023-02-07T09:38:18.218Z,72.67
2023-02-07T09:42:55.483Z,71.98
2023-02-07T09:47:15.665Z,72.31
2023-02-07T09:51:27.402Z,72.27
2023-02-07T09:55:49.787Z,72.24
2023-02-07T10:00:25.011Z,70.88
2023-02-07T10:04:41.112Z,70.79
2023-02-07T10:08:55.561Z,69.15
2023-02-07T10:13:18.132Z,67.60
2023-02-07T10:18:03.140Z,68.86
2023-02-07T10:22:27.174Z,68.24
2023-02-07T10:27:08.000Z,68.46
2023-02-07T10:31:23.781Z,68.42
2023-02-07T10:35:37.250Z,67.86
2023-02-07T10:40:15.612Z,67.75
2023-02-07T10:44:29.674Z,66.46
2023-02-07T10:48:41.722Z,65.99
2023-02-07T10:52:58.871Z,65.88
2023-02-07T10:57:18.113Z,66.21
2023-02-07T11:01:33.106Z,66.37
2023-02-07T11:05:55.551Z,66.49
2023-02-07T11:10:19.515Z,66.21
2023-02-07T11:14:31.017Z,65.41
2023-02-07T11:18:45.872Z,65.10
2023-02-07T11:22:58.336Z,65.88
2023-02-07T11:27:22.434Z,65.45
2023-02-07T11:31:37.565Z,64.81
2023-02-07T11:36:04.647Z,64.20
2023-02-07T11:40:19.061Z,64.52
2023-02-07T11:44:30.991Z,63.54
2023-02-07T11:48:47.507Z,62.33
2023-02-07T11:53:01.032Z,62.19
2023-02-07T11:57:15.642Z,61.37
2023-02-07T12:01:33.681Z,60.63
2023-02-07T12:05:50.207Z,61.89
2023-02-07T12:10:05.619Z,60.91
2023-02-07T12:14:26.945Z,61.84
2023-02-07T12:18:43.799Z,60.66
2023-02-07T12:23:41.276Z,60.23
2023-02-07T12:27:59.248Z,60.18
2023-02-07T12:32:26.907Z,59.81
2023-02-07T12:36:43.706Z,58.93
2023-02-07T12:41:00.482Z,59.13
2023-02-07T12:45:18.790Z,58.92
2023-02-07T12:49:39.243Z,58.45
2023-02-07T12:54:23.267Z,57.34
2023-02-07T12:59:00.251Z,57.14
2023-02-07T13:03:36.634Z,56.89
2023-02-07T13:07:56.156Z,57.23
2023-02-07T13:12:18.722Z,57.81
2023-02-07T13:16:54.327Z,56.99
2023-02-07T13:21:33.694Z,56.85
2023-02-07T13:25:49.762Z,57.57
2023-02-07T13:30:01.871Z,57.64
2023-02-07T13:34:37.027Z,57.58
2023-02-07T13:38:58.961Z,57.97
2023-02-07T13:43:21.508Z,57.89
2023-02-07T13:47:51.849Z,58.38
2023-02-07T13:52:05.360Z,57.79
2023-02-07T13:56:35.586Z,57.21
2023-02-07T14:00:53.211Z,57.66
2023-02-07T14:05:20.221Z,56.85
2023-02-07T14:09:37.482Z,58.31
2023-02-07T14:13:48.938Z,56.35
2023-02-07T14:18:06.444Z,56.59
2023-02-07T14:22:17.900Z,55.71
2023-02-07T14:26:42.849Z,55.60
2023-02-07T14:30:54.409Z,56.44
2023-02-07T14:35:18.002Z,56.79
2023-02-07T14:39:32.062Z,56.68
2023-02-07T14:44:07.622Z,55.79
2023-02-07T14:48:49.628Z,56.07
2023-02-07T14:53:04.751Z,56.02
2023-02-07T14:57:53.806Z,55.81
2023-02-07T15:02:27.284Z,55.89
2023-02-07T15:06:44.323Z,56.34
2023-02-07T15:10:57.735Z,56.23
2023-02-07T15:15:19.415Z,56.80
2023-02-07T15:19:40.793Z,56.57
2023-02-07T15:24:01.831Z,56.94
2023-02-07T15:28:28.341Z,56.83
2023-02-07T15:32:47.289Z,56.81
2023-02-07T15:37:19.420Z,56.32
2023-02-07T15:41:31.500Z,56.37
2023-02-07T15:45:58.478Z,56.98
2023-02-07T15:50:23.603Z,56.32
2023-02-07T15:54:39.892Z,56.57
2023-02-07T15:58:52.836Z,57.12
2023-02-07T16:03:07.879Z,57.52
2023-02-07T16:07:21.935Z,57.47
2023-02-07T16:11:37.321Z,57.39
2023-02-07T16:15:57.478Z,57.65
2023-02-07T16:20:15.801Z,58.08
2023-02-07T16:24:30.172Z,57.86
2023-02-07T16:28:41.991Z,58.58
2023-02-07T16:32:53.571Z,58.93
2023-02-07T16:37:05.269Z,58.80
2023-02-07T16:41:31.250Z,59.27
2023-02-07T16:45:42.798Z,59.29
2023-02-07T16:49:54.292Z,59.46
2023-02-07T16:54:05.886Z,60.15
2023-02-07T16:58:25.463Z,60.31
2023-02-07T17:02:36.963Z,60.96
2023-02-07T17:06:49.327Z,61.31
2023-02-07T17:11:03.272Z,61.67
2023-02-07T17:15:15.135Z,61.31
2023-02-07T17:19:28.388Z,62.05
2023-02-07T17:23:40.422Z,62.26
2023-02-07T17:27:52.152Z,62.75
2023-02-07T17:32:03.770Z,63.81
2023-02-07T17:36:16.049Z,63.83
2023-02-07T17:40:36.534Z,64.46
2023-02-07T17:44:48.040Z,64.59
2023-02-07T17:49:00.860Z,65.15
2023-02-07T17:53:13.003Z,65.29
2023-02-07T17:57:24.484Z,65.35
2023-02-07T18:01:35.918Z,65.19
2023-02-07T18:05:47.466Z,66.24
2023-02-07T18:09:58.929Z,66.30
2023-02-07T18:14:10.433Z,66.49
2023-02-07T18:18:21.878Z,66.84
2023-02-07T18:22:33.580Z,66.60
2023-02-07T18:26:46.343Z,66.88
2023-02-07T18:30:57.986Z,67.99
2023-02-07T18:35:10.096Z,67.40
2023-02-07T18:39:21.580Z,67.27
2023-02-07T18:43:33.013Z,67.30
2023-02-07T18:47:44.690Z,67.54
2023-02-07T18:51:56.138Z,67.59
2023-02-07T18:56:11.350Z,67.74
2023-02-07T19:00:23.241Z,68.00
2023-02-07T19:04:35.344Z,67.54
2023-02-07T19:08:47.603Z,68.02
2023-02-07T19:12:59.096Z,68.04
2023-02-07T19:17:10.748Z,68.05
2023-02-07T19:21:27.098Z,68.06
2023-02-07T19:25:48.734Z,68.27
2023-02-07T19:30:00.258Z,68.16
2023-02-07T19:34:13.525Z,68.19
2023-02-07T19:38:24.983Z,68.69
2023-02-07T19:42:36.581Z,69.10
2023-02-07T19:46:48.387Z,69.03
2023-02-07T19:51:05.099Z,69.38
2023-02-07T19:55:16.555Z,69.04
2023-02-07T19:59:27.989Z,68.93
2023-02-07T20:03:40.630Z,68.54
2023-02-07T20:07:52.433Z,68.59
2023-02-07T20:12:04.089Z,68.08
2023-02-07T20:16:19.223Z,67.62
2023-02-07T20:20:30.723Z,67.25
2023-02-07T20:24:42.266Z,67.48
2023-02-07T20:28:55.808Z,67.13
2023-02-07T20:33:07.259Z,67.29
2023-02-07T20:37:18.697Z,67.37
2023-02-07T20:41:30.243Z,67.74
2023-02-07T20:45:41.733Z,67.87
2023-02-07T20:49:53.264Z,68.30
2023-02-07T20:54:06.866Z,67.94
2023-02-07T20:58:18.469Z,68.71
2023-02-07T21:02:29.988Z,68.88
2023-02-07T21:06:42.717Z,69.76
2023-02-07T21:10:54.422Z,70.39
2023-02-07T21:15:06.111Z,71.12
2023-02-07T21:19:17.663Z,71.74
2023-02-07T21:23:29.164Z,71.96
2023-02-07T21:27:40.658Z,71.06
2023-02-07T21:31:52.361Z,71.62
2023-02-07T21:36:10.904Z,71.47
2023-02-07T21:40:22.707Z,71.11
2023-02-07T21:44:34.275Z,71.25
2023-02-07T21:48:46.733Z,71.54
2023-02-07T21:52:58.208Z,71.48
2023-02-07T21:57:15.001Z,71.64
2023-02-07T22:01:28.210Z,71.25
2023-02-07T22:05:39.728Z,72.09
2023-02-07T22:09:52.326Z,71.98
2023-02-07T22:14:04.372Z,72.03
2023-02-07T22:18:16.236Z,72.45
2023-02-07T22:22:27.703Z,72.14
2023-02-07T22:26:39.814Z,72.20
